createdAt,value
2023-01-29T00:47:38.340Z,93682.59
2023-01-29T01:02:58.593Z,93685.69
2023-01-29T01:18:00.912Z,93683.34
2023-01-29T01:33:02.703Z,93679.91
2023-01-29T01:48:07.008Z,93681.06
2023-01-29T05:04:35.760Z,93769.59
2023-01-29T05:19:37.242Z,93770.69
2023-01-29T05:34:38.847Z,93782.53
2023-01-29T05:49:40.401Z,93798.53
2023-01-29T06:04:41.921Z,93805.78
2023-01-29T06:19:43.439Z,93823.72
2023-01-29T06:50:51.910Z,93848.13
2023-01-29T07:22:14.422Z,93884.03
2023-01-29T07:37:15.995Z,93896.63
2023-01-29T07:52:21.292Z,93903.09
2023-01-29T08:07:23.685Z,93911.50
2023-01-29T08:22:25.410Z,93909.97
2023-01-29T08:37:26.932Z,93926.38
2023-01-29T08:52:28.433Z,93940.50
2023-01-29T09:07:30.179Z,93956.50
2023-01-29T09:22:31.939Z,93959.19
2023-01-29T09:37:33.601Z,93944.31
2023-01-29T09:52:46.706Z,93934.00
2023-01-29T10:07:58.265Z,93920.66
2023-01-29T10:23:18.518Z,93904.63
2023-01-29T10:38:40.163Z,93897.00
2023-01-29T10:54:01.079Z,93897.75
2023-01-29T11:09:11.916Z,93882.50
2023-01-29T11:24:17.106Z,93878.69
2023-01-29T11:39:20.266Z,93855.81
2023-01-29T11:54:25.956Z,93832.53
2023-01-29T12:09:29.468Z,93828.31
2023-01-29T12:24:31.055Z,93828.72
2023-01-29T12:39:32.742Z,93837.09
2023-01-29T12:54:39.801Z,93831.38
2023-01-29T13:09:44.331Z,93835.97
2023-01-29T13:24:58.711Z,93826.44
2023-01-29T13:40:07.192Z,93842.06
2023-01-29T13:55:15.011Z,93851.97
2023-01-29T14:10:21.265Z,93872.59
2023-01-29T14:25:28.372Z,93878.69
2023-01-29T14:40:30.448Z,93904.63
2023-01-29T14:55:48.582Z,93895.47
2023-01-29T15:11:14.615Z,93900.03
2023-01-29T15:26:21.768Z,93889.38
2023-01-29T15:41:24.348Z,93901.94
2023-01-29T15:56:28.246Z,93906.84
2023-01-29T16:11:30.160Z,93920.19
2023-01-29T16:26:33.186Z,93917.53
2023-01-29T16:41:36.289Z,93930.88
2023-01-29T16:56:39.548Z,93936.59
2023-01-29T17:11:41.913Z,93926.69
2023-01-29T17:26:43.731Z,93928.19
2023-01-29T17:41:53.451Z,93923.63
2023-01-29T17:57:07.289Z,93929.72
2023-01-29T18:12:10.356Z,93920.56
2023-01-29T18:27:11.965Z,93914.09
2023-01-29T18:42:13.517Z,93913.69
2023-01-29T18:57:15.644Z,93922.84
2023-01-29T19:12:36.702Z,93908.75
2023-01-29T19:27:38.416Z,93910.28
2023-01-29T19:58:49.415Z,93910.66
2023-01-29T20:13:51.762Z,93906.84
2023-01-29T20:28:53.348Z,93906.47
2023-01-29T20:43:54.958Z,93907.97
2023-01-29T20:58:56.476Z,93912.56
2023-01-29T21:13:58.323Z,93912.94
2023-01-29T21:29:00.150Z,93927.44
2023-01-29T21:44:01.784Z,93925.91
2023-01-29T21:59:03.558Z,93909.97
2023-01-29T22:14:05.114Z,93884.72
2023-01-29T22:29:06.596Z,93879.00
2023-01-29T22:44:09.007Z,93866.41
2023-01-29T22:59:10.834Z,93861.84
2023-01-29T23:14:12.424Z,93843.53
2023-01-29T23:29:14.382Z,93845.06
2023-01-29T23:44:15.954Z,93845.06
2023-01-29T23:59:17.811Z,93838.97
